Time;durP1;ratioP1;P1;durP2;ratioP2;P2;SDS_P1;SDS_P2;PMS_P1;PMS_P2;Temp;Humidity;BMP_temperature;BMP_pressure;BME280_temperature;BME280_humidity;BME280_pressure;Samples;Min_cycle;Max_cycle;Signal;HPM_P1;HPM_P2
2022/06/10 04:28:20;;;;;;;8.80;6.30;;;;;;;18.88;100.00;94126.19;6082591;22;1420512;-82
2022/06/10 04:30:49;;;;;;;10.97;5.17;;;;;;;18.88;100.00;94134.16;6075306;23;20506;-79
2022/06/10 04:33:17;;;;;;;6.00;5.50;;;;;;;19.08;100.00;94129.72;6127527;23;20390;-84
2022/06/10 04:35:46;;;;;;;7.97;5.23;;;;;;;19.56;100.00;94132.28;6127195;23;20402;-82
2022/06/10 04:38:14;;;;;;;6.60;5.77;;;;;;;19.73;97.14;94133.53;6126813;23;20430;-82
2022/06/10 04:40:42;;;;;;;10.83;5.63;;;;;;;19.78;96.41;94138.25;6052616;23;20401;-83
2022/06/10 04:43:09;;;;;;;5.60;5.17;;;;;;;19.75;96.55;94136.81;6126622;23;20433;-84
2022/06/10 04:45:40;;;;;;;10.13;6.00;;;;;;;19.70;96.40;94143.78;6076398;23;20409;-83
2022/06/10 04:48:07;;;;;;;6.40;5.20;;;;;;;19.59;96.35;94150.50;6126608;23;20417;-83
2022/06/10 04:50:34;;;;;;;9.73;5.83;;;;;;;19.41;96.79;94147.59;6126804;23;20395;-82
2022/06/10 04:53:01;;;;;;;7.93;5.90;;;;;;;19.29;97.23;94144.69;6052856;23;20712;-83
2022/06/10 04:55:28;;;;;;;7.70;5.20;;;;;;;19.22;98.24;94151.03;6126716;23;20735;-82
2022/06/10 04:57:55;;;;;;;6.30;5.70;;;;;;;19.16;98.62;94150.81;6126626;23;20951;-78
2022/06/10 05:00:25;;;;;;;7.33;5.40;;;;;;;19.13;99.24;94153.06;6127187;23;20397;-80
2022/06/10 05:02:54;;;;;;;9.47;6.27;;;;;;;19.10;99.11;94153.47;6126780;23;20947;-80
2022/06/10 05:05:21;;;;;;;6.40;5.67;;;;;;;19.11;99.79;94155.94;6127150;23;20399;-80
2022/06/10 05:07:48;;;;;;;9.87;5.90;;;;;;;19.15;100.00;94157.16;6126694;23;20409;-80
2022/06/10 05:10:16;;;;;;;6.30;5.70;;;;;;;19.21;100.00;94152.06;6126739;23;20404;-80
2022/06/10 05:12:44;;;;;;;9.13;6.70;;;;;;;19.10;100.00;94158.78;6126699;23;20736;-81
2022/06/10 05:15:13;;;;;;;7.67;6.70;;;;;;;19.07;100.00;94154.66;6126570;23;20405;-80
2022/06/10 05:17:40;;;;;;;8.27;7.30;;;;;;;18.94;100.00;94162.59;6126546;23;20823;-81
2022/06/10 05:20:11;;;;;;;8.50;7.10;;;;;;;18.90;100.00;94166.69;6126123;23;20432;-81
2022/06/10 05:22:38;;;;;;;7.43;6.73;;;;;;;18.88;100.00;94171.38;6125555;23;20409;-81
2022/06/10 05:25:05;;;;;;;8.20;7.50;;;;;;;18.66;100.00;94183.13;6126004;23;20413;-81
2022/06/10 05:27:32;;;;;;;7.60;6.87;;;;;;;18.62;100.00;94179.19;6125985;23;20418;-81
2022/06/10 05:29:59;;;;;;;8.40;7.60;;;;;;;18.64;100.00;94187.81;6126085;23;20730;-81
2022/06/10 05:32:26;;;;;;;8.30;7.60;;;;;;;18.75;100.00;94176.63;6125699;23;20410;-81
2022/06/10 05:34:53;;;;;;;9.47;8.57;;;;;;;18.85;100.00;94177.09;6126094;23;20790;-80
2022/06/10 05:37:25;;;;;;;9.57;8.67;;;;;;;18.75;100.00;94179.28;6125914;23;20744;-81
2022/06/10 05:39:52;;;;;;;10.77;9.57;;;;;;;18.76;100.00;94176.44;6126018;23;20446;-81
2022/06/10 05:42:20;;;;;;;14.30;10.43;;;;;;;18.87;100.00;94175.88;6125588;23;20403;-81
2022/06/10 05:44:50;;;;;;;11.57;10.47;;;;;;;18.86;100.00;94178.75;6125778;23;20397;-81
2022/06/10 05:47:20;;;;;;;10.77;9.67;;;;;;;18.55;100.00;94169.34;6125973;23;20437;-81
2022/06/10 05:49:49;;;;;;;12.20;10.77;;;;;;;18.65;100.00;94178.84;6125588;23;20486;-81
2022/06/10 05:52:19;;;;;;;12.63;11.27;;;;;;;18.62;100.00;94182.72;6126174;23;20410;-81
2022/06/10 05:54:49;;;;;;;15.93;11.53;;;;;;;18.53;100.00;94176.72;6125784;23;20411;-81
2022/06/10 05:57:16;;;;;;;10.77;9.67;;;;;;;18.53;100.00;94178.53;6126061;23;20415;-81
2022/06/10 05:59:43;;;;;;;13.43;11.10;;;;;;;18.35;100.00;94184.34;6126591;23;20975;-80
2022/06/10 06:02:13;;;;;;;12.53;11.20;;;;;;;18.23;100.00;94186.75;6127562;23;20892;-81
2022/06/10 06:04:40;;;;;;;11.57;10.47;;;;;;;18.16;100.00;94179.72;6128092;23;20782;-81
2022/06/10 06:07:09;;;;;;;17.60;10.87;;;;;;;18.14;100.00;94189.72;6127308;23;20414;-81
2022/06/10 06:09:36;;;;;;;11.07;9.90;;;;;;;18.30;100.00;94192.09;6127934;23;20409;-80
2022/06/10 06:12:05;;;;;;;13.87;10.13;;;;;;;18.37;100.00;94184.97;6127471;23;20715;-81
2022/06/10 06:14:32;;;;;;;11.57;10.47;;;;;;;18.41;100.00;94191.53;6127686;23;20414;-81
2022/06/10 06:17:01;;;;;;;22.40;10.77;;;;;;;18.47;100.00;94195.25;6127234;23;20417;-81
2022/06/10 06:19:29;;;;;;;11.63;10.57;;;;;;;18.41;100.00;94191.53;6127256;23;20873;-81
2022/06/10 06:21:57;;;;;;;15.50;11.70;;;;;;;18.53;100.00;94199.81;6127889;23;20487;-80
2022/06/10 06:24:24;;;;;;;12.37;11.17;;;;;;;18.50;100.00;94205.47;6127971;23;20413;-81
2022/06/10 06:26:52;;;;;;;10.60;9.40;;;;;;;18.50;100.00;94206.34;6127232;23;20492;-80
2022/06/10 06:29:23;;;;;;;11.63;10.20;;;;;;;18.29;100.00;94208.22;6127436;23;20441;-80
2022/06/10 06:31:52;;;;;;;17.73;11.93;;;;;;;18.34;100.00;94208.47;6127307;23;20967;-80
2022/06/10 06:34:20;;;;;;;13.53;11.63;;;;;;;18.39;100.00;94201.53;6127619;23;20497;-80
2022/06/10 06:36:48;;;;;;;10.13;9.13;;;;;;;18.43;100.00;94201.97;6128778;23;20473;-80
2022/06/10 06:39:18;;;;;;;10.67;9.67;;;;;;;18.52;100.00;94209.59;6127929;23;20466;-80
2022/06/10 06:41:45;;;;;;;8.87;8.07;;;;;;;18.50;100.00;94205.47;6128076;23;20473;-77
2022/06/10 06:44:12;;;;;;;12.30;9.30;;;;;;;18.56;100.00;94213.50;6128363;23;20405;-79
2022/06/10 06:46:42;;;;;;;14.13;10.63;;;;;;;18.52;100.00;94209.59;6127818;23;20407;-79
2022/06/10 06:49:20;;;;;;;11.03;9.93;;;;;;;18.65;100.00;94208.06;6128028;23;20406;-78
2022/06/10 06:51:48;;;;;;;9.83;8.87;;;;;;;18.52;100.00;94216.75;6128480;23;20403;-79
2022/06/10 06:54:15;;;;;;;10.13;9.20;;;;;;;18.50;100.00;94211.66;6127541;23;20880;-80
2022/06/10 06:56:43;;;;;;;13.20;10.90;;;;;;;18.52;100.00;94220.25;6128118;23;20406;-77
2022/06/10 06:59:10;;;;;;;13.67;10.13;;;;;;;18.67;100.00;94211.34;6127967;23;20433;-79
2022/06/10 07:01:40;;;;;;;16.63;10.70;;;;;;;18.38;100.00;94212.38;6127755;23;20399;-81
2022/06/10 07:04:07;;;;;;;12.63;9.63;;;;;;;18.53;100.00;94211.25;6128137;23;20398;-80
2022/06/10 07:16:41;;;;;;;13.73;12.30;;;;;;;18.57;100.00;94209.84;6126533;23;20374;-78
2022/06/10 07:19:08;;;;;;;11.53;10.43;;;;;;;18.61;100.00;94209.44;6127993;23;20442;-78
2022/06/10 07:21:35;;;;;;;17.20;11.10;;;;;;;18.64;100.00;94198.44;6127754;23;20897;-78
2022/06/10 07:24:02;;;;;;;12.30;10.97;;;;;;;18.78;100.00;94208.13;6127288;23;20410;-82
2022/06/10 07:26:30;;;;;;;13.90;12.27;;;;;;;18.92;100.00;94201.88;6127719;23;20411;-81
2022/06/10 07:28:57;;;;;;;14.00;12.60;;;;;;;19.09;100.00;94211.16;6126644;23;20789;-84
2022/06/10 07:31:24;;;;;;;13.23;11.93;;;;;;;19.13;100.00;94211.56;6127587;23;20393;-79
2022/06/10 07:33:53;;;;;;;11.03;9.93;;;;;;;19.25;100.00;94220.63;6053048;23;20413;-77
2022/06/10 07:36:20;;;;;;;14.27;11.97;;;;;;;19.33;100.00;94215.09;6127832;23;20425;-78
2022/06/10 07:38:50;;;;;;;11.80;10.73;;;;;;;19.28;100.00;94214.06;6127231;23;20439;-78
2022/06/10 07:44:01;;;;;;;11.57;10.43;;;;;;;19.56;100.00;94217.44;6127627;23;20403;-78
2022/06/10 07:46:28;;;;;;;12.67;10.23;;;;;;;19.52;100.00;94212.72;6127753;23;20405;-78
2022/06/10 07:48:56;;;;;;;9.33;8.53;;;;;;;19.61;100.00;94216.84;6127776;23;20421;-78
2022/06/10 07:51:23;;;;;;;10.50;9.40;;;;;;;19.60;100.00;94208.03;6127406;23;20482;-78
2022/06/10 07:53:50;;;;;;;11.07;9.70;;;;;;;19.63;100.00;94212.13;6127331;23;20406;-78
2022/06/10 07:56:20;;;;;;;10.87;9.60;;;;;;;19.71;100.00;94214.63;6127804;23;20428;-78
2022/06/10 07:58:47;;;;;;;10.20;9.20;;;;;;;19.83;100.00;94220.16;6128047;23;20448;-78
2022/06/10 08:01:15;;;;;;;13.90;10.50;;;;;;;20.03;100.00;94215.69;6127313;23;20885;-78
2022/06/10 08:03:41;;;;;;;10.00;9.10;;;;;;;20.08;100.00;94215.88;6127423;23;20411;-78
2022/06/10 08:06:12;;;;;;;10.67;9.40;;;;;;;20.36;100.00;94213.84;6127643;23;20405;-78
2022/06/10 08:08:39;;;;;;;9.50;8.17;;;;;;;20.37;97.92;94217.31;6127009;23;20399;-78
2022/06/10 08:11:06;;;;;;;9.73;8.67;;;;;;;20.45;99.25;94219.78;6127750;23;20426;-77
2022/06/10 08:13:33;;;;;;;9.00;8.10;;;;;;;20.70;96.86;94225.28;6127301;23;20415;-77
2022/06/10 08:16:00;;;;;;;9.80;9.00;;;;;;;21.04;95.91;94216.16;6127538;23;20396;-79
2022/06/10 08:18:31;;;;;;;8.30;7.50;;;;;;;21.37;95.31;94224.06;6077047;23;20728;-80
2022/06/10 08:23:44;;;;;;;8.93;8.13;;;;;;;21.82;90.82;94226.72;6063721;23;20402;-79
2022/06/10 08:26:12;;;;;;;7.50;6.80;;;;;;;22.12;88.52;94222.41;6127434;23;20397;-84
2022/06/10 08:28:42;;;;;;;14.10;6.47;;;;;;;22.29;82.60;94236.09;6127499;23;20453;-83
2022/06/10 08:31:09;;;;;;;8.43;7.77;;;;;;;22.45;83.97;94234.69;6127115;23;20718;-82
2022/06/10 08:33:43;;;;;;;8.23;7.10;;;;;;;22.69;86.31;94225.03;6127273;23;20401;-84
2022/06/10 08:36:13;;;;;;;7.03;6.43;;;;;;;22.75;84.86;94226.81;6127382;23;20410;-83
2022/06/10 08:38:42;;;;;;;8.73;7.70;;;;;;;22.56;84.83;94239.34;6126879;23;20484;-84
2022/06/10 08:41:16;;;;;;;9.67;8.40;;;;;;;22.43;86.62;94244.78;6126842;23;20425;-81
2022/06/10 08:43:52;;;;;;;9.57;8.20;;;;;;;22.29;87.41;94243.28;6076217;23;20435;-82
2022/06/10 08:46:53;;;;;;;11.83;8.53;;;;;;;22.13;88.10;94236.59;6126966;23;20390;-84
2022/06/10 08:49:40;;;;;;;13.53;8.70;;;;;;;21.99;88.88;94238.53;6126780;23;20420;-85
2022/06/10 08:52:16;;;;;;;6.90;6.40;;;;;;;21.92;88.18;94251.09;6126595;23;20486;-84
2022/06/10 08:54:51;;;;;;;8.20;7.40;;;;;;;21.51;87.77;94248.88;6126764;23;20429;-82
2022/06/10 08:57:27;;;;;;;8.93;8.03;;;;;;;21.50;88.97;94255.25;6127134;23;20429;-81
2022/06/10 09:06:56;;;;;;;9.03;8.33;;;;;;;20.52;95.32;94251.75;6126847;23;20362;-80
2022/06/10 09:09:27;;;;;;;9.50;7.63;;;;;;;20.27;96.59;94244.38;6121509;23;20901;-82
2022/06/10 09:12:00;;;;;;;8.33;7.53;;;;;;;20.04;97.61;94243.97;6126755;23;20409;-81
2022/06/10 09:14:29;;;;;;;8.63;7.87;;;;;;;20.18;99.09;94248.25;6127240;23;20466;-81
2022/06/10 09:17:02;;;;;;;9.80;8.90;;;;;;;20.38;99.26;94241.09;6126873;23;20399;-82
2022/06/10 09:19:41;;;;;;;7.90;7.20;;;;;;;20.30;93.46;94248.47;6126421;23;20442;-82
2022/06/10 09:22:14;;;;;;;8.20;7.23;;;;;;;20.52;96.37;94251.75;6126205;23;20792;-82
2022/06/10 09:24:49;;;;;;;7.67;6.63;;;;;;;20.74;95.13;94237.19;6125580;23;20502;-82
2022/06/10 09:27:21;;;;;;;7.03;6.43;;;;;;;20.95;92.34;94252.94;6125689;23;20430;-82
2022/06/10 09:29:50;;;;;;;7.70;7.10;;;;;;;20.95;92.67;94254.78;6126074;23;20925;-82
2022/06/10 09:32:26;;;;;;;9.73;8.43;;;;;;;20.76;94.52;94244.97;6126059;23;20418;-81
2022/06/10 09:35:03;;;;;;;7.33;6.67;;;;;;;20.76;92.05;94250.31;6126094;23;20737;-81
2022/06/10 09:37:41;;;;;;;7.57;6.87;;;;;;;20.73;93.20;94251.53;6125673;23;20480;-82
2022/06/10 09:43:43;;;;;;;8.20;6.97;;;;;;;20.45;94.66;94269.59;6125793;23;20445;-83
2022/06/10 09:46:39;;;;;;;7.50;6.70;;;;;;;20.32;96.88;94255.25;6125940;23;20430;-82
2022/06/10 09:49:23;;;;;;;7.97;7.27;;;;;;;20.33;95.33;94253.41;6125472;23;20502;-81
2022/06/10 09:51:59;;;;;;;8.03;7.23;;;;;;;20.55;96.52;94262.84;6125682;23;20417;-82
2022/06/10 09:54:44;;;;;;;7.87;7.17;;;;;;;20.52;96.11;94268.56;6125894;23;20414;-81
2022/06/10 09:57:35;;;;;;;7.40;6.80;;;;;;;20.71;97.92;94265.06;6126168;23;20797;-81
2022/06/10 10:00:06;;;;;;;7.67;6.87;;;;;;;20.78;98.67;94277.56;6126105;23;20538;-81
2022/06/10 10:02:46;;;;;;;8.07;7.37;;;;;;;20.67;96.14;94279.03;6126202;23;20423;-82
2022/06/10 10:05:25;;;;;;;7.27;6.67;;;;;;;20.54;95.09;94279.06;6125790;23;20984;-82
2022/06/10 10:07:54;;;;;;;7.40;6.70;;;;;;;20.63;96.06;94285.81;6126067;23;20707;-82
2022/06/10 10:10:30;;;;;;;12.33;8.17;;;;;;;20.53;95.12;94293.38;6125566;23;20410;-81
2022/06/10 10:13:20;;;;;;;7.77;7.07;;;;;;;20.50;95.47;94293.78;6125413;23;20722;-81
2022/06/10 10:15:52;;;;;;;8.17;7.27;;;;;;;20.49;94.46;94300.16;6126044;23;20730;-82
2022/06/10 10:18:53;;;;;;;14.30;8.40;;;;;;;20.54;96.16;94295.06;6126238;23;20407;-82
2022/06/10 10:21:24;;;;;;;10.77;8.93;;;;;;;20.21;97.40;94301.13;6007887;23;20457;-82
2022/06/10 10:23:54;;;;;;;9.67;8.13;;;;;;;20.02;99.34;94292.09;5984978;23;20417;-82
2022/06/10 10:26:24;;;;;;;10.93;9.70;;;;;;;20.00;100.00;94301.31;6008278;23;20414;-81
2022/06/10 10:28:59;;;;;;;10.20;9.30;;;;;;;19.98;100.00;94303.38;6007640;23;20450;-82
2022/06/10 10:31:27;;;;;;;10.47;9.57;;;;;;;19.87;100.00;94298.63;6007858;23;20500;-82
2022/06/10 10:33:56;;;;;;;11.37;9.93;;;;;;;19.95;100.00;94293.09;6008261;23;20410;-81
2022/06/10 10:36:31;;;;;;;10.73;9.63;;;;;;;20.02;100.00;94296.63;6008048;23;20435;-82
2022/06/10 10:39:00;;;;;;;10.90;9.80;;;;;;;20.10;100.00;94294.56;6007896;23;20492;-82
2022/06/10 10:41:35;;;;;;;10.80;9.70;;;;;;;20.20;100.00;94302.16;6007823;23;20452;-82
2022/06/10 10:44:06;;;;;;;11.57;10.40;;;;;;;20.28;100.00;94291.31;6008151;23;20413;-82
2022/06/10 10:46:38;;;;;;;10.87;9.87;;;;;;;20.30;100.00;94294.59;6009272;23;20421;-82
2022/06/10 10:49:22;;;;;;;12.17;10.63;;;;;;;20.25;100.00;94291.72;6009700;23;20431;-81
2022/06/10 10:51:50;;;;;;;11.83;8.70;;;;;;;20.13;100.00;94295.19;6009650;23;20416;-82
2022/06/10 10:54:24;;;;;;;11.57;10.37;;;;;;;20.09;100.00;94298.25;5963508;23;20413;-82
2022/06/10 10:56:52;;;;;;;10.10;8.57;;;;;;;20.01;100.00;94300.31;6061861;23;20412;-81
2022/06/10 10:59:35;;;;;;;9.40;8.60;;;;;;;20.00;100.00;94293.34;6127040;23;20407;-82
2022/06/10 11:02:24;;;;;;;10.23;9.23;;;;;;;20.08;100.00;94298.47;6127182;23;20410;-82
2022/06/10 11:04:53;;;;;;;9.57;8.60;;;;;;;20.15;100.00;94296.63;6052110;23;20493;-82
2022/06/10 11:07:22;;;;;;;13.67;9.23;;;;;;;20.22;100.00;94302.78;6127412;23;20432;-82
2022/06/10 11:09:53;;;;;;;9.27;8.47;;;;;;;20.28;100.00;94296.66;6127094;23;20739;-82
2022/06/10 11:12:23;;;;;;;10.43;8.53;;;;;;;20.29;100.00;94292.97;6127485;23;20703;-81
2022/06/10 11:14:58;;;;;;;9.20;8.37;;;;;;;20.28;100.00;94296.66;6127406;23;20495;-82
2022/06/10 11:17:25;;;;;;;13.07;7.97;;;;;;;20.42;100.00;94292.16;6127140;23;20401;-82
2022/06/10 11:19:59;;;;;;;11.30;10.20;;;;;;;20.52;100.00;94283.75;6126760;23;20446;-82
2022/06/10 11:22:30;;;;;;;10.73;9.47;;;;;;;20.56;100.00;94285.81;6052416;23;20398;-82
2022/06/10 11:25:22;;;;;;;12.17;8.90;;;;;;;20.59;100.00;94279.25;6127304;23;20974;-82
2022/06/10 11:28:20;;;;;;;11.20;10.00;;;;;;;20.59;100.00;94280.06;6127266;23;20410;-82
2022/06/10 11:30:49;;;;;;;11.50;8.97;;;;;;;20.63;100.00;94280.47;6009196;23;20420;-82
2022/06/10 11:33:30;;;;;;;10.27;9.00;;;;;;;20.66;100.00;94275.56;6009424;23;20427;-81
2022/06/10 11:36:10;;;;;;;8.87;8.07;;;;;;;20.66;100.00;94280.88;6009244;23;20421;-82
2022/06/10 11:38:46;;;;;;;9.30;8.30;;;;;;;20.69;100.00;94279.66;6009131;23;20437;-81
2022/06/10 11:41:26;;;;;;;9.63;8.70;;;;;;;20.73;100.00;94278.19;6009125;23;20451;-81
2022/06/10 11:44:02;;;;;;;10.10;9.10;;;;;;;20.81;100.00;94280.66;6009076;23;20403;-81
2022/06/10 11:46:41;;;;;;;12.67;8.50;;;;;;;20.87;100.00;94273.69;6009052;23;20418;-81
2022/06/10 11:49:18;;;;;;;9.10;8.20;;;;;;;20.94;100.00;94269.97;5939340;23;20424;-82
2022/06/10 11:51:54;;;;;;;9.03;8.13;;;;;;;21.01;100.00;94270.75;6009032;23;20419;-81
2022/06/10 11:54:35;;;;;;;8.70;7.87;;;;;;;21.13;100.00;94272.81;6008909;23;20418;-81
2022/06/10 12:00:01;;;;;;;8.60;7.80;;;;;;;21.29;100.00;94272.34;6008814;23;20448;-81
2022/06/10 12:02:35;;;;;;;7.90;7.10;;;;;;;21.52;100.00;94278.03;6008646;23;20425;-82
2022/06/10 12:05:21;;;;;;;14.47;7.87;;;;;;;21.71;99.88;94268.28;6008789;23;20454;-81
2022/06/10 12:07:56;;;;;;;10.83;7.93;;;;;;;21.92;98.68;94267.13;6077097;23;20410;-82
2022/06/10 12:10:27;;;;;;;6.83;6.27;;;;;;;22.15;95.61;94261.25;6126550;23;20418;-82
2022/06/10 12:12:56;;;;;;;7.83;7.10;;;;;;;22.33;94.25;94257.84;6126414;23;20419;-82
2022/06/10 12:15:26;;;;;;;5.60;5.17;;;;;;;22.50;90.76;94262.41;6053329;23;20772;-81
2022/06/10 12:17:57;;;;;;;6.30;5.70;;;;;;;22.75;90.06;94259.72;6126396;23;20745;-82
2022/06/10 12:20:33;;;;;;;6.60;5.70;;;;;;;22.85;89.22;94249.38;6126483;23;20452;-81
2022/06/10 12:23:11;;;;;;;6.47;5.90;;;;;;;22.97;89.48;94249.47;6126498;23;20407;-82
2022/06/10 12:25:51;;;;;;;6.13;5.73;;;;;;;22.99;89.05;94247.38;6126313;23;20410;-82
2022/06/10 12:28:31;;;;;;;6.17;5.60;;;;;;;22.93;86.74;94248.28;6126273;23;20421;-82
2022/06/10 12:31:03;;;;;;;7.63;6.93;;;;;;;23.01;89.50;94234.59;6126331;23;20472;-82
2022/06/10 12:33:36;;;;;;;6.33;5.73;;;;;;;23.03;85.61;94239.72;6126385;23;20410;-82
2022/06/10 12:36:06;;;;;;;11.63;6.77;;;;;;;23.05;84.62;94240.31;6126044;23;20417;-82
2022/06/10 12:38:40;;;;;;;8.00;6.13;;;;;;;23.00;87.14;94241.00;6126365;23;20426;-82
2022/06/10 12:41:12;;;;;;;7.33;6.30;;;;;;;22.89;83.78;94238.25;6125821;23;20447;-82
2022/06/10 12:43:42;;;;;;;7.57;6.77;;;;;;;22.78;84.04;94237.06;6126438;23;20497;-82
2022/06/10 12:46:33;;;;;;;9.90;9.00;;;;;;;22.68;85.99;94224.22;6125827;23;20429;-82
2022/06/10 12:49:07;;;;;;;7.67;6.97;;;;;;;22.58;86.16;94231.94;6126125;23;20415;-83
2022/06/10 12:51:40;;;;;;;8.50;7.80;;;;;;;22.40;86.61;94231.88;6126242;23;20422;-82
2022/06/10 12:54:20;;;;;;;9.13;8.23;;;;;;;22.33;87.11;94236.47;6125906;23;20429;-81
2022/06/10 12:56:47;;;;;;;7.67;6.97;;;;;;;22.27;85.50;94240.00;6126345;23;20410;-81
2022/06/10 12:59:23;;;;;;;7.33;6.73;;;;;;;22.34;87.00;94238.09;6126351;23;20407;-81
2022/06/10 13:01:51;;;;;;;7.67;7.07;;;;;;;22.23;84.54;94243.09;6126062;23;20449;-81
2022/06/10 13:04:50;;;;;;;9.20;7.73;;;;;;;22.20;85.06;94248.88;6126327;23;20418;-81
2022/06/10 13:07:27;;;;;;;8.67;7.47;;;;;;;21.85;84.42;94239.63;6008162;23;20623;-81
2022/06/10 13:10:34;;;;;;;7.50;6.67;;;;;;;22.06;85.57;94236.66;6008070;23;20408;-81
2022/06/10 13:13:12;;;;;;;9.17;8.37;;;;;;;22.14;85.20;94244.41;6008021;23;20415;-81
2022/06/10 13:15:42;;;;;;;10.47;8.60;;;;;;;22.06;84.60;94242.00;6007951;23;20907;-81
2022/06/10 13:18:31;;;;;;;8.80;8.00;;;;;;;22.05;83.61;94235.03;6007998;23;20974;-81
2022/06/10 13:21:09;;;;;;;9.20;8.40;;;;;;;22.11;86.41;94231.47;6007990;23;20454;-81
2022/06/10 13:23:48;;;;;;;8.60;7.90;;;;;;;22.15;85.64;94223.84;6008129;23;20892;-80
2022/06/10 13:26:19;;;;;;;9.60;8.70;;;;;;;22.17;82.80;94225.25;5961871;23;20421;-81
2022/06/10 13:28:47;;;;;;;10.13;9.17;;;;;;;22.17;83.07;94221.75;6007601;23;20445;-80
2022/06/10 13:31:18;;;;;;;7.93;7.07;;;;;;;22.29;82.93;94228.06;6007950;23;20489;-81
2022/06/10 13:34:00;;;;;;;8.40;7.70;;;;;;;22.38;83.09;94217.91;6008146;23;20920;-80
2022/06/10 13:36:31;;;;;;;10.80;9.70;;;;;;;22.34;81.66;94216.72;5961104;23;20817;-81
2022/06/10 13:38:59;;;;;;;10.10;8.97;;;;;;;22.40;83.28;94210.47;6007843;23;20413;-81
2022/06/10 13:41:53;;;;;;;10.88;8.70;;;;;;;22.52;86.62;94208.72;6007609;23;20424;-81
2022/06/10 13:44:33;;;;;;;8.80;8.00;;;;;;;22.57;85.82;94206.22;6018334;23;20512;-81
2022/06/10 13:47:01;;;;;;;15.13;8.43;;;;;;;22.70;85.63;94203.41;6125922;23;20462;-81
2022/06/10 13:49:45;;;;;;;11.80;8.30;;;;;;;22.81;85.97;94197.34;6125954;23;20407;-81
2022/06/10 13:52:17;;;;;;;7.97;7.17;;;;;;;22.86;83.58;94205.53;6126374;23;20507;-81
2022/06/10 13:54:45;;;;;;;9.13;8.23;;;;;;;22.95;82.10;94202.56;6125485;23;20417;-81
2022/06/10 13:57:29;;;;;;;8.13;7.33;;;;;;;23.12;82.50;94208.94;6125691;23;20889;-81
2022/06/10 14:00:01;;;;;;;14.83;9.00;;;;;;;23.26;82.98;94214.97;6126021;23;20411;-81
2022/06/10 14:02:33;;;;;;;8.57;7.50;;;;;;;23.31;83.61;94215.91;6125815;23;20478;-80
2022/06/10 14:05:02;;;;;;;10.87;9.17;;;;;;;23.27;83.68;94213.94;6125672;23;20940;-81
2022/06/10 14:07:36;;;;;;;9.77;8.87;;;;;;;23.18;83.00;94210.75;6125884;23;20725;-81
2022/06/10 14:10:04;;;;;;;9.13;8.33;;;;;;;23.10;83.29;94214.50;6125541;23;20438;-81
2022/06/10 14:12:32;;;;;;;10.07;7.87;;;;;;;23.03;83.91;94216.44;6125757;23;20417;-81
2022/06/10 14:15:13;;;;;;;9.40;8.60;;;;;;;22.99;85.20;94217.94;6125646;23;20416;-81
2022/06/10 14:17:47;;;;;;;11.93;8.87;;;;;;;22.89;85.67;94214.16;6125598;23;20791;-82
2022/06/10 14:20:18;;;;;;;9.20;8.30;;;;;;;22.76;86.09;94215.88;6125981;23;20428;-81
2022/06/10 14:22:47;;;;;;;11.43;9.10;;;;;;;22.66;86.28;94217.44;6052917;23;20804;-81
2022/06/10 14:25:23;;;;;;;9.30;8.40;;;;;;;22.61;86.60;94212.75;6127707;23;20413;-81
2022/06/10 14:28:03;;;;;;;9.80;8.80;;;;;;;22.54;86.67;94211.97;6127381;23;20726;-81
2022/06/10 14:30:47;;;;;;;9.90;8.80;;;;;;;22.33;87.39;94223.09;6127491;23;21123;-81
2022/06/10 14:33:18;;;;;;;10.50;9.37;;;;;;;22.23;89.13;94220.88;6127898;23;20394;-81
2022/06/10 14:35:49;;;;;;;13.57;9.80;;;;;;;22.20;89.58;94222.16;6053273;23;20489;-81
2022/06/10 14:38:22;;;;;;;9.67;8.77;;;;;;;22.19;89.91;94217.03;6127266;23;20410;-81
2022/06/10 14:40:58;;;;;;;12.83;10.80;;;;;;;22.17;90.68;94216.41;6127040;23;20945;-81
2022/06/10 14:43:28;;;;;;;12.23;10.13;;;;;;;22.05;91.57;94219.00;6127180;23;20416;-83
2022/06/10 14:46:04;;;;;;;13.20;11.00;;;;;;;21.93;92.61;94226.00;6126916;23;20403;-82
2022/06/10 14:48:33;;;;;;;11.47;10.43;;;;;;;21.82;94.58;94224.03;6127469;23;20407;-81
2022/06/10 14:51:22;;;;;;;10.90;9.80;;;;;;;21.71;95.43;94225.56;6127507;23;20407;-81
2022/06/10 14:53:53;;;;;;;13.90;12.03;;;;;;;21.57;97.08;94235.47;6127049;23;20426;-82
2022/06/10 14:56:28;;;;;;;11.87;10.67;;;;;;;21.40;99.07;94237.00;6127413;23;20764;-82
2022/06/10 14:58:56;;;;;;;12.47;10.43;;;;;;;20.98;100.00;94241.84;6127543;23;20432;-84
2022/06/10 15:01:27;;;;;;;14.63;10.87;;;;;;;20.84;100.00;94250.91;6127777;23;20446;-82
2022/06/10 15:03:54;;;;;;;14.37;11.40;;;;;;;20.50;100.00;94253.81;6128690;23;20407;-82
2022/06/10 15:06:26;;;;;;;13.07;9.53;;;;;;;20.25;100.00;94249.09;6128047;23;20409;-85
2022/06/10 15:08:56;;;;;;;13.00;11.67;;;;;;;20.02;100.00;94254.00;6127504;23;20412;-83
2022/06/10 15:11:25;;;;;;;20.50;11.67;;;;;;;20.01;100.00;94252.38;6128115;23;20449;-79
2022/06/10 15:13:52;;;;;;;16.90;11.83;;;;;;;20.13;100.00;94264.03;6127955;23;20398;-84
2022/06/10 15:16:22;;;;;;;10.93;9.90;;;;;;;20.07;100.00;94267.53;6127684;23;20417;-82
2022/06/10 15:18:50;;;;;;;15.63;12.03;;;;;;;19.95;100.00;94266.47;6127969;23;20402;-82
2022/06/10 15:21:19;;;;;;;15.23;12.53;;;;;;;19.55;100.00;94278.88;6128426;23;20460;-82
2022/06/10 15:23:49;;;;;;;15.93;12.27;;;;;;;19.30;100.00;94281.19;6128515;23;20390;-82
2022/06/10 15:26:23;;;;;;;15.97;14.47;;;;;;;19.04;100.00;94281.88;6127851;23;20497;-84
2022/06/10 15:28:51;;;;;;;14.60;13.07;;;;;;;18.91;100.00;94280.00;6128288;23;20438;-88
2022/06/10 15:31:21;;;;;;;13.53;12.27;;;;;;;18.53;100.00;94290.97;6127701;23;20413;-85
2022/06/10 15:33:49;;;;;;;14.10;12.80;;;;;;;18.45;100.00;94284.94;6127846;23;20696;-86
2022/06/10 15:41:56;;;;;;;11.80;10.60;;;;;;;18.12;100.00;94279.38;6127493;23;20444;-85
2022/06/10 15:44:26;;;;;;;11.57;10.40;;;;;;;17.89;100.00;94276.91;6127818;23;20399;-84
2022/06/10 15:46:55;;;;;;;11.93;10.67;;;;;;;17.83;100.00;94277.66;6053157;23;20799;-84
2022/06/10 15:49:23;;;;;;;11.80;10.70;;;;;;;17.80;100.00;94278.88;6127448;23;20791;-86
2022/06/10 15:51:54;;;;;;;12.73;11.40;;;;;;;17.94;100.00;94290.47;6127880;23;20420;-86
2022/06/10 15:54:25;;;;;;;13.73;11.43;;;;;;;18.13;100.00;94299.59;6127910;23;20844;-87
2022/06/10 15:57:09;;;;;;;15.73;12.30;;;;;;;18.30;100.00;94295.69;6129307;23;20440;-89
2022/06/10 15:59:40;;;;;;;11.50;10.27;;;;;;;18.49;100.00;94305.63;6129931;23;20413;-88
2022/06/10 16:02:15;;;;;;;16.40;10.80;;;;;;;18.69;100.00;94311.13;6128913;23;20451;-89
2022/06/10 16:04:42;;;;;;;12.07;10.77;;;;;;;18.86;100.00;94311.66;6129200;23;20413;-89
2022/06/10 16:07:10;;;;;;;12.03;10.60;;;;;;;19.00;100.00;94321.34;6128300;23;20417;-89
2022/06/10 16:09:37;;;;;;;14.33;11.33;;;;;;;19.10;100.00;94319.19;6127975;23;20477;-88
2022/06/10 16:14:51;;;;;;;11.70;9.53;;;;;;;19.53;100.00;94311.00;6129165;23;20398;-90
2022/06/10 16:17:21;;;;;;;14.17;9.90;;;;;;;19.73;100.00;94309.25;6129006;23;20506;-90
2022/06/10 16:19:48;;;;;;;9.23;8.37;;;;;;;20.00;100.00;94307.47;6129009;23;20429;-88
2022/06/10 16:22:17;;;;;;;12.97;9.67;;;;;;;20.15;100.00;94306.47;6129642;23;20436;-91
2022/06/10 16:24:45;;;;;;;15.10;9.60;;;;;;;20.42;100.00;94295.66;6130055;23;20433;-92
2022/06/10 16:27:14;;;;;;;9.60;8.37;;;;;;;20.54;100.00;94290.53;6129819;23;20824;-90
2022/06/10 16:29:42;;;;;;;9.63;8.83;;;;;;;20.70;100.00;94292.78;6129316;23;20533;-93
2022/06/10 16:32:12;;;;;;;12.37;9.30;;;;;;;20.82;100.00;94282.31;6128358;23;20402;-92
2022/06/10 16:34:40;;;;;;;9.40;8.50;;;;;;;20.93;100.00;94284.34;6132206;23;20442;-92
2022/06/10 16:37:07;;;;;;;8.15;7.45;;;;;;;20.97;98.90;94290.88;6128168;23;20414;-87
2022/06/10 16:39:35;;;;;;;10.83;9.70;;;;;;;20.85;98.46;94286.41;6128193;23;20814;-88
2022/06/10 16:42:02;;;;;;;14.30;9.40;;;;;;;20.75;98.91;94292.16;6128931;23;20446;-89
2022/06/10 16:44:36;;;;;;;10.60;9.60;;;;;;;20.60;99.53;94289.72;6128926;23;20482;-90
2022/06/10 16:47:05;;;;;;;13.10;9.20;;;;;;;20.62;100.00;94292.16;6128805;23;20918;-89
2022/06/10 16:49:36;;;;;;;10.40;9.50;;;;;;;20.57;100.00;94289.31;6129942;23;20789;-88